createdAt,value
2023-04-11T00:00:37.171Z,5.65
2023-04-11T00:03:03.873Z,5.32
2023-04-11T00:05:34.004Z,4.03
2023-04-11T00:08:00.684Z,2.28
2023-04-11T00:10:27.294Z,2.90
2023-04-11T00:12:56.622Z,3.40
2023-04-11T00:15:29.478Z,3.28
2023-04-11T00:17:58.394Z,5.10
2023-04-11T00:20:25.068Z,4.53
2023-04-11T00:22:54.004Z,2.05
2023-04-11T00:25:20.713Z,3.13
2023-04-11T00:27:47.391Z,3.50
2023-04-11T00:30:14.282Z,2.90
2023-04-11T00:32:41.118Z,3.42
2023-04-11T00:35:08.691Z,4.15
2023-04-11T00:37:36.132Z,3.67
2023-04-11T00:40:05.700Z,3.25
2023-04-11T00:42:33.125Z,3.13
2023-04-11T00:44:59.809Z,3.28
2023-04-11T00:47:26.641Z,3.05
2023-04-11T00:49:53.272Z,4.95
2023-04-11T00:52:20.001Z,4.53
2023-04-11T00:54:46.906Z,5.63
2023-04-11T00:57:14.278Z,3.35
2023-04-11T00:59:42.732Z,3.33
2023-04-11T01:02:09.389Z,2.38
2023-04-11T01:04:36.295Z,4.03
2023-04-11T01:07:06.195Z,4.15
2023-04-11T01:09:36.076Z,3.97
2023-04-11T01:12:03.842Z,5.80
2023-04-11T01:14:30.872Z,3.45
2023-04-11T01:16:58.590Z,2.92
2023-04-11T01:19:29.437Z,3.35
2023-04-11T01:21:57.801Z,3.28
2023-04-11T01:24:24.686Z,4.40
2023-04-11T01:26:52.219Z,5.43
2023-04-11T01:29:18.906Z,2.83
2023-04-11T01:31:45.720Z,4.05
2023-04-11T01:34:14.283Z,3.05
2023-04-11T01:36:44.603Z,5.95
2023-04-11T01:39:11.771Z,3.20
2023-04-11T01:41:39.509Z,5.10
2023-04-11T01:44:06.250Z,4.47
2023-04-11T01:46:33.263Z,3.78
2023-04-11T01:49:01.546Z,7.03
2023-04-11T01:51:28.401Z,4.35
2023-04-11T01:53:55.350Z,4.10
2023-04-11T01:56:22.227Z,3.92
2023-04-11T01:58:49.123Z,4.72
2023-04-11T02:01:19.883Z,3.15
2023-04-11T02:03:46.784Z,3.15
2023-04-11T02:06:14.824Z,3.55
2023-04-11T02:08:41.452Z,3.90
2023-04-11T02:11:08.301Z,7.03
2023-04-11T02:13:35.910Z,5.18
2023-04-11T02:16:11.617Z,4.68
2023-04-11T02:18:38.337Z,2.63
2023-04-11T02:21:06.016Z,4.43
2023-04-11T02:23:32.901Z,3.67
2023-04-11T02:26:00.930Z,3.70
2023-04-11T02:28:27.500Z,3.85
2023-04-11T02:30:54.268Z,4.78
2023-04-11T02:33:21.034Z,3.22
2023-04-11T02:35:47.816Z,4.38
2023-04-11T02:38:14.716Z,2.67
2023-04-11T02:40:41.377Z,2.42
2023-04-11T02:43:07.996Z,4.95
2023-04-11T02:45:34.657Z,4.70
2023-04-11T02:48:01.354Z,3.05
2023-04-11T02:50:28.016Z,3.05
2023-04-11T02:52:54.892Z,3.35
2023-04-11T02:55:24.568Z,3.78
2023-04-11T02:57:51.883Z,3.78
2023-04-11T03:00:22.043Z,2.55
2023-04-11T03:02:49.437Z,3.30
2023-04-11T03:05:16.167Z,3.15
2023-04-11T03:07:44.045Z,3.55
2023-04-11T03:10:10.904Z,3.38
2023-04-11T03:12:37.561Z,3.97
2023-04-11T03:15:04.521Z,2.63
2023-04-11T03:17:31.380Z,2.35
2023-04-11T03:19:58.028Z,3.55
2023-04-11T03:22:25.117Z,2.67
2023-04-11T03:24:51.757Z,2.83
2023-04-11T03:27:18.355Z,3.22
2023-04-11T03:29:45.124Z,4.03
2023-04-11T03:32:11.760Z,3.53
2023-04-11T03:34:38.413Z,2.40
2023-04-11T03:37:05.060Z,2.90
2023-04-11T03:39:31.742Z,2.70
2023-04-11T03:41:58.457Z,2.13
2023-04-11T03:44:25.132Z,2.60
2023-04-11T03:46:51.781Z,1.85
2023-04-11T03:49:18.476Z,1.73
2023-04-11T03:51:46.602Z,1.65
2023-04-11T03:54:13.176Z,3.22
2023-04-11T03:56:39.877Z,1.95
2023-04-11T03:59:06.491Z,2.95
2023-04-11T04:01:33.804Z,2.15
2023-04-11T04:04:01.329Z,0.85
2023-04-11T04:06:28.453Z,1.40
2023-04-11T04:08:55.359Z,2.72
2023-04-11T04:11:21.999Z,1.42
2023-04-11T04:13:48.688Z,0.95
2023-04-11T04:16:16.987Z,1.38
2023-04-11T04:18:43.686Z,0.57
2023-04-11T04:21:10.321Z,2.38
2023-04-11T04:23:39.066Z,1.17
2023-04-11T04:26:06.680Z,0.95
2023-04-11T04:28:33.633Z,1.00
2023-04-11T04:31:02.107Z,2.28
2023-04-11T04:33:28.743Z,1.45
2023-04-11T04:35:59.797Z,1.48
2023-04-11T04:38:28.872Z,0.60
2023-04-11T04:40:55.531Z,2.25
2023-04-11T04:43:24.319Z,1.65
2023-04-11T04:45:51.233Z,1.92
2023-04-11T04:48:17.985Z,1.00
2023-04-11T04:50:45.740Z,1.88
2023-04-11T04:53:12.470Z,1.13
2023-04-11T04:55:39.133Z,2.40
2023-04-11T04:58:05.768Z,1.50
2023-04-11T05:00:33.545Z,2.42
2023-04-11T05:03:00.707Z,2.95
2023-04-11T05:05:27.444Z,1.52
2023-04-11T05:07:54.057Z,3.80
2023-04-11T05:10:20.840Z,2.53
2023-04-11T05:12:47.671Z,1.38
2023-04-11T05:15:15.145Z,2.35
2023-04-11T05:17:42.773Z,1.15
2023-04-11T05:22:38.036Z,1.52
2023-04-11T05:25:05.532Z,0.50
2023-04-11T05:27:32.365Z,2.67
2023-04-11T05:30:00.523Z,2.13
2023-04-11T05:32:27.226Z,1.30
2023-04-11T05:34:58.795Z,1.05
2023-04-11T05:37:26.090Z,2.67
2023-04-11T05:39:53.032Z,1.15
2023-04-11T05:42:19.641Z,0.60
2023-04-11T05:44:46.260Z,1.65
2023-04-11T05:47:12.899Z,0.52
2023-04-11T05:49:39.547Z,1.88
2023-04-11T05:52:06.155Z,1.65
2023-04-11T05:54:34.566Z,1.27
2023-04-11T05:57:04.583Z,3.78
2023-04-11T05:59:32.500Z,1.88
2023-04-11T06:01:59.368Z,2.63
2023-04-11T06:04:26.485Z,2.05
2023-04-11T06:06:54.106Z,1.70
2023-04-11T06:09:20.787Z,1.33
2023-04-11T06:11:47.479Z,2.75
2023-04-11T06:14:14.125Z,1.90
2023-04-11T06:16:41.325Z,0.95
2023-04-11T06:19:08.418Z,1.67
2023-04-11T06:21:35.119Z,2.30
2023-04-11T06:24:09.059Z,0.77
2023-04-11T06:26:35.684Z,1.80
2023-04-11T06:29:06.278Z,2.05
2023-04-11T06:31:33.613Z,0.93
2023-04-11T06:34:03.558Z,0.75
2023-04-11T06:36:30.261Z,2.03
2023-04-11T06:38:56.873Z,1.00
2023-04-11T06:41:23.887Z,1.60
2023-04-11T06:43:50.479Z,2.40
2023-04-11T06:46:17.181Z,1.35
2023-04-11T06:48:43.825Z,1.10
2023-04-11T06:51:10.579Z,1.45
2023-04-11T06:53:37.421Z,1.48
2023-04-11T06:56:04.374Z,1.27
2023-04-11T06:58:31.042Z,1.50
2023-04-11T07:00:57.793Z,0.80
2023-04-11T07:03:25.098Z,2.55
2023-04-11T07:05:52.142Z,0.68
2023-04-11T07:08:18.724Z,1.40
2023-04-11T07:10:45.481Z,2.55
2023-04-11T07:13:12.170Z,1.48
2023-04-11T07:15:38.776Z,1.40
2023-04-11T07:18:05.545Z,3.53
2023-04-11T07:20:33.317Z,3.53
2023-04-11T07:23:00.200Z,2.65
2023-04-11T07:25:30.478Z,1.73
2023-04-11T07:27:57.746Z,1.23
2023-04-11T07:30:24.447Z,1.13
2023-04-11T07:32:51.217Z,2.33
2023-04-11T07:35:18.127Z,2.17
2023-04-11T07:37:45.607Z,1.08
2023-04-11T07:40:14.520Z,2.78
2023-04-11T07:42:41.768Z,1.58
2023-04-11T07:45:08.999Z,2.58
2023-04-11T07:47:35.811Z,1.30
2023-04-11T07:50:03.345Z,3.22
2023-04-11T07:52:30.215Z,2.03
2023-04-11T07:54:56.984Z,1.35
2023-04-11T07:57:23.602Z,2.03
2023-04-11T07:59:50.424Z,2.55
2023-04-11T08:02:17.107Z,2.20
2023-04-11T08:04:43.965Z,1.95
2023-04-11T08:07:11.424Z,5.00
2023-04-11T08:09:38.132Z,3.60
2023-04-11T08:12:04.906Z,1.33
2023-04-11T08:14:31.717Z,4.00
2023-04-11T08:16:59.276Z,2.67
2023-04-11T08:19:25.969Z,2.25
2023-04-11T08:21:52.769Z,3.53
2023-04-11T08:24:19.604Z,3.08
2023-04-11T08:26:46.320Z,3.35
2023-04-11T08:29:12.993Z,3.72
2023-04-11T08:31:44.408Z,7.07
2023-04-11T08:34:11.825Z,4.55
2023-04-11T08:36:38.465Z,2.78
2023-04-11T08:39:05.245Z,5.03
2023-04-11T08:41:33.337Z,1.95
2023-04-11T08:44:00.483Z,2.88
2023-04-11T08:46:27.292Z,3.97
2023-04-11T08:48:54.744Z,4.55
2023-04-11T08:51:26.876Z,4.07
2023-04-11T08:53:57.905Z,4.57
2023-04-11T08:56:24.838Z,6.03
2023-04-11T08:58:51.422Z,4.15
2023-04-11T09:01:25.965Z,7.65
2023-04-11T09:03:53.301Z,5.93
2023-04-11T09:06:19.994Z,5.25
2023-04-11T09:08:47.421Z,5.72
2023-04-11T09:11:14.066Z,5.28
2023-04-11T09:13:40.805Z,5.10
2023-04-11T09:16:09.959Z,4.65
2023-04-11T09:18:37.427Z,6.10
2023-04-11T09:21:09.638Z,4.38
2023-04-11T09:23:37.124Z,2.55
2023-04-11T09:26:09.135Z,3.72
2023-04-11T09:28:53.749Z,4.57
2023-04-11T09:31:21.780Z,5.00
2023-04-11T09:33:59.705Z,3.72
2023-04-11T09:36:27.234Z,5.47
2023-04-11T09:38:54.143Z,3.65
2023-04-11T09:41:32.176Z,3.85
2023-04-11T09:43:59.348Z,1.77
2023-04-11T09:46:26.227Z,4.38
2023-04-11T09:48:54.686Z,5.15
2023-04-11T09:51:35.157Z,4.68
2023-04-11T09:54:04.914Z,3.38
2023-04-11T09:56:34.040Z,2.72
2023-04-11T09:59:02.364Z,5.82
2023-04-11T10:01:28.990Z,2.83
2023-04-11T10:03:56.823Z,4.65
2023-04-11T10:06:50.381Z,2.97
2023-04-11T10:09:17.410Z,3.75
2023-04-11T10:11:45.337Z,4.38
2023-04-11T10:14:36.465Z,3.35
2023-04-11T10:17:20.515Z,2.97
2023-04-11T10:19:49.304Z,3.33
2023-04-11T10:22:41.058Z,3.58
2023-04-11T10:25:17.926Z,2.35
2023-04-11T10:27:53.728Z,3.47
2023-04-11T10:30:39.590Z,2.70
2023-04-11T10:33:17.308Z,4.03
2023-04-11T10:36:05.341Z,2.80
2023-04-11T10:38:46.112Z,4.57
2023-04-11T10:41:31.494Z,3.90
2023-04-11T10:44:14.681Z,3.25
2023-04-11T10:46:46.688Z,2.75
2023-04-11T10:49:30.712Z,3.53
2023-04-11T10:52:16.631Z,3.10
2023-04-11T10:54:44.777Z,4.85
2023-04-11T10:57:11.723Z,3.22
2023-04-11T10:59:38.331Z,3.15
2023-04-11T11:02:05.043Z,5.88
2023-04-11T11:04:37.388Z,3.90
2023-04-11T11:07:06.077Z,3.33
2023-04-11T11:09:34.350Z,2.95
2023-04-11T11:12:11.042Z,3.92
2023-04-11T11:14:40.022Z,3.17
2023-04-11T11:17:07.641Z,2.67
2023-04-11T11:19:35.699Z,4.53
2023-04-11T11:22:06.672Z,4.25
2023-04-11T11:24:33.405Z,5.25
2023-04-11T11:27:00.483Z,3.45
2023-04-11T11:29:28.607Z,4.75
2023-04-11T11:31:55.537Z,5.38
2023-04-11T11:34:32.918Z,5.30
2023-04-11T11:37:01.772Z,2.38
2023-04-11T11:39:30.483Z,1.48
2023-04-11T11:41:58.056Z,2.60
2023-04-11T11:44:27.286Z,2.03
2023-04-11T11:47:21.768Z,4.00
2023-04-11T11:49:54.110Z,3.75
2023-04-11T11:52:40.636Z,3.10
2023-04-11T11:55:11.395Z,1.90
2023-04-11T11:57:47.373Z,2.63
2023-04-11T12:00:15.812Z,2.33
2023-04-11T12:02:44.075Z,3.10
2023-04-11T12:05:12.171Z,2.03
2023-04-11T12:07:39.352Z,5.93
2023-04-11T12:10:11.730Z,3.65
2023-04-11T12:12:40.831Z,2.88
2023-04-11T12:15:11.820Z,2.55
2023-04-11T12:17:39.302Z,3.95
2023-04-11T12:20:07.993Z,4.35
2023-04-11T12:22:35.255Z,3.63
2023-04-11T12:25:10.234Z,4.25
2023-04-11T12:27:38.519Z,3.35
2023-04-11T12:30:06.005Z,4.03
2023-04-11T12:32:33.926Z,4.38
2023-04-11T12:35:01.983Z,6.00
2023-04-11T12:37:29.027Z,8.85
2023-04-11T12:39:55.647Z,5.07
2023-04-11T12:42:26.717Z,4.22
2023-04-11T12:44:54.173Z,5.18
2023-04-11T12:47:20.899Z,5.30
2023-04-11T12:49:47.561Z,3.08
2023-04-11T12:52:14.197Z,3.20
2023-04-11T12:54:41.141Z,4.32
2023-04-11T12:57:07.904Z,3.15
2023-04-11T12:59:34.560Z,5.03
2023-04-11T13:02:01.976Z,3.17
2023-04-11T13:04:28.964Z,4.75
2023-04-11T13:07:00.778Z,4.55
2023-04-11T13:09:31.403Z,4.82
2023-04-11T13:11:59.420Z,3.10
2023-04-11T13:14:26.238Z,4.32
2023-04-11T13:16:53.136Z,2.65
2023-04-11T13:19:21.577Z,2.17
2023-04-11T13:21:48.480Z,2.90
2023-04-11T13:24:15.983Z,2.80
2023-04-11T13:26:44.782Z,2.53
2023-04-11T13:29:12.257Z,6.10
2023-04-11T13:31:39.062Z,3.90
2023-04-11T13:34:06.126Z,4.38
2023-04-11T13:36:32.995Z,7.43
2023-04-11T13:38:59.699Z,3.10
2023-04-11T13:41:26.481Z,5.07
2023-04-11T13:43:54.074Z,5.90
2023-04-11T13:46:21.815Z,5.93
2023-04-11T13:48:48.647Z,3.90
2023-04-11T13:51:15.364Z,4.22
2023-04-11T13:53:42.512Z,6.03
2023-04-11T13:56:09.390Z,2.45
2023-04-11T13:58:37.155Z,4.10
2023-04-11T14:01:04.456Z,3.03
2023-04-11T14:03:33.735Z,4.13
2023-04-11T14:06:01.522Z,3.95
2023-04-11T14:08:28.914Z,2.75
2023-04-11T14:10:56.290Z,4.50
2023-04-11T14:13:23.077Z,2.35
2023-04-11T14:15:55.134Z,3.65
2023-04-11T14:18:32.111Z,2.63
2023-04-11T14:21:01.137Z,2.00
2023-04-11T14:23:29.003Z,1.52
2023-04-11T14:25:55.887Z,2.40
2023-04-11T14:28:26.102Z,3.25
2023-04-11T14:30:53.153Z,1.30
2023-04-11T14:33:19.939Z,1.88
2023-04-11T14:35:47.250Z,3.10
2023-04-11T14:38:15.860Z,2.90
2023-04-11T14:40:43.001Z,2.58
2023-04-11T14:43:10.067Z,3.95
2023-04-11T14:45:36.966Z,2.47
2023-04-11T14:48:03.873Z,4.22
2023-04-11T14:50:30.629Z,2.80
2023-04-11T14:52:57.286Z,3.40
2023-04-11T14:55:24.183Z,2.13
2023-04-11T14:57:55.719Z,4.65
2023-04-11T15:00:24.615Z,3.58
2023-04-11T15:02:53.612Z,2.83
2023-04-11T15:05:21.532Z,3.00
2023-04-11T15:07:49.982Z,2.30
2023-04-11T15:10:18.892Z,2.20
2023-04-11T15:12:45.929Z,3.92
2023-04-11T15:15:13.434Z,3.75
2023-04-11T15:17:46.082Z,5.75
2023-04-11T15:20:16.908Z,3.60
2023-04-11T15:22:45.399Z,4.53
2023-04-11T15:25:13.892Z,6.43
2023-04-11T15:27:40.697Z,4.60
2023-04-11T15:32:07.285Z,5.43
2023-04-11T15:34:33.886Z,5.75
2023-04-11T15:37:00.473Z,2.33
2023-04-11T15:39:27.122Z,5.03
2023-04-11T15:41:53.743Z,3.05
2023-04-11T15:44:20.720Z,5.20
2023-04-11T15:46:49.464Z,2.78
2023-04-11T15:49:16.648Z,2.75
2023-04-11T15:51:45.767Z,3.63
2023-04-11T15:54:12.642Z,2.47
2023-04-11T15:56:39.259Z,6.05
2023-04-11T15:59:07.929Z,5.25
2023-04-11T16:01:36.274Z,4.20
2023-04-11T16:04:03.273Z,4.10
2023-04-11T16:06:31.097Z,4.53
2023-04-11T16:08:57.709Z,3.90
2023-04-11T16:11:24.487Z,3.63
2023-04-11T16:13:51.116Z,2.67
2023-04-11T16:16:17.807Z,3.17
2023-04-11T16:18:44.504Z,3.25
2023-04-11T16:21:15.732Z,4.03
2023-04-11T16:23:42.964Z,3.13
2023-04-11T16:26:10.433Z,3.42
2023-04-11T16:28:37.077Z,2.25
2023-04-11T16:31:04.240Z,1.63
2023-04-11T16:33:30.949Z,2.90
2023-04-11T16:35:57.584Z,5.32
2023-04-11T16:38:24.268Z,2.58
2023-04-11T16:40:50.857Z,2.13
2023-04-11T16:43:17.429Z,1.92
2023-04-11T16:45:44.591Z,2.63
2023-04-11T16:48:11.679Z,2.92
2023-04-11T16:50:38.648Z,3.17
2023-04-11T16:53:05.254Z,2.15
2023-04-11T16:55:31.862Z,3.47
2023-04-11T16:57:58.512Z,4.32
2023-04-11T17:00:25.414Z,4.05
2023-04-11T17:02:52.268Z,3.80
2023-04-11T17:05:19.202Z,4.50
2023-04-11T17:07:46.262Z,2.85
2023-04-11T17:10:12.911Z,6.13
2023-04-11T17:12:39.543Z,4.63
2023-04-11T17:15:08.312Z,2.35
2023-04-11T17:17:35.037Z,3.20
2023-04-11T17:20:07.687Z,4.60
2023-04-11T17:22:34.343Z,3.90
2023-04-11T17:25:00.944Z,4.85
2023-04-11T17:27:27.666Z,4.13
2023-04-11T17:29:54.224Z,3.63
2023-04-11T17:32:21.276Z,3.10
2023-04-11T17:34:48.527Z,4.45
2023-04-11T17:37:15.138Z,4.15
2023-04-11T17:39:41.970Z,2.58
2023-04-11T17:42:08.651Z,3.35
2023-04-11T17:44:35.313Z,3.55
2023-04-11T17:47:01.924Z,3.10
2023-04-11T17:49:28.535Z,4.45
2023-04-11T17:51:59.193Z,4.47
2023-04-11T17:54:26.490Z,5.40
2023-04-11T17:56:53.258Z,4.22
2023-04-11T17:59:21.071Z,3.75
2023-04-11T18:01:47.859Z,4.78
2023-04-11T18:04:15.342Z,3.88
2023-04-11T18:06:42.528Z,5.93
2023-04-11T18:09:09.225Z,3.28
2023-04-11T18:11:36.260Z,3.60
2023-04-11T18:14:02.947Z,3.70
2023-04-11T18:16:29.724Z,4.18
2023-04-11T18:18:56.804Z,4.72
2023-04-11T18:21:23.405Z,5.30
2023-04-11T18:23:50.028Z,9.02
2023-04-11T18:26:16.617Z,4.53
2023-04-11T18:28:43.251Z,4.05
2023-04-11T18:31:10.236Z,8.25
2023-04-11T18:33:42.682Z,4.72
2023-04-11T18:36:24.570Z,2.95
2023-04-11T18:38:51.961Z,5.68
2023-04-11T18:41:19.109Z,5.78
2023-04-11T18:43:46.466Z,5.60
2023-04-11T18:46:14.095Z,5.78
2023-04-11T18:48:40.972Z,6.47
2023-04-11T18:51:07.775Z,5.68
2023-04-11T18:53:36.348Z,4.72
2023-04-11T18:56:03.488Z,5.80
2023-04-11T18:58:32.443Z,5.68
2023-04-11T19:01:03.603Z,7.18
2023-04-11T19:03:36.683Z,6.28
2023-04-11T19:06:03.869Z,7.53
2023-04-11T19:08:30.701Z,7.45
2023-04-11T19:10:57.362Z,6.85
2023-04-11T19:13:23.953Z,8.15
2023-04-11T19:15:50.893Z,6.60
2023-04-11T19:18:17.784Z,5.65
2023-04-11T19:20:44.381Z,6.57
2023-04-11T19:23:11.315Z,5.38
2023-04-11T19:25:38.008Z,4.78
2023-04-11T19:28:06.096Z,6.50
2023-04-11T19:30:32.722Z,6.68
2023-04-11T19:32:59.350Z,5.60
2023-04-11T19:35:26.069Z,7.90
2023-04-11T19:37:53.106Z,8.88
2023-04-11T19:40:23.099Z,7.72
2023-04-11T19:42:50.084Z,6.40
2023-04-11T19:45:16.932Z,7.43
2023-04-11T19:47:43.551Z,5.93
2023-04-11T19:50:13.135Z,6.03
2023-04-11T19:52:40.946Z,6.57
2023-04-11T19:55:09.300Z,6.00
2023-04-11T19:57:38.272Z,6.95
2023-04-11T20:00:13.602Z,4.63
2023-04-11T20:02:44.526Z,7.45
2023-04-11T20:05:15.905Z,8.52
2023-04-11T20:07:43.957Z,6.50
2023-04-11T20:10:15.233Z,4.97
2023-04-11T20:12:41.872Z,5.82
2023-04-11T20:15:09.221Z,7.50
2023-04-11T20:17:35.994Z,6.15
2023-04-11T20:20:05.898Z,6.85
2023-04-11T20:22:33.082Z,5.65
2023-04-11T20:24:59.728Z,7.63
2023-04-11T20:27:27.997Z,5.95
2023-04-11T20:30:00.553Z,6.60
2023-04-11T20:32:27.212Z,4.83
2023-04-11T20:34:53.896Z,6.13
2023-04-11T20:37:22.550Z,6.82
2023-04-11T20:39:51.516Z,6.40
2023-04-11T20:42:20.394Z,6.57
2023-04-11T20:44:47.403Z,5.47
2023-04-11T20:47:14.140Z,7.65
2023-04-11T20:49:40.734Z,5.53
2023-04-11T20:52:07.692Z,6.68
2023-04-11T20:54:34.323Z,5.85
2023-04-11T20:57:01.309Z,5.82
2023-04-11T20:59:29.036Z,4.32
2023-04-11T21:01:55.704Z,7.68
2023-04-11T21:04:22.568Z,4.72
2023-04-11T21:06:50.135Z,5.88
2023-04-11T21:09:17.323Z,3.80
2023-04-11T21:11:43.953Z,4.70
2023-04-11T21:14:10.608Z,2.67
2023-04-11T21:16:37.187Z,4.75
2023-04-11T21:19:03.821Z,3.97
2023-04-11T21:21:30.982Z,4.75
2023-04-11T21:23:57.810Z,5.85
2023-04-11T21:26:24.671Z,5.40
2023-04-11T21:28:51.356Z,4.72
2023-04-11T21:31:18.089Z,5.45
2023-04-11T21:33:46.587Z,6.38
2023-04-11T21:36:13.292Z,10.13
2023-04-11T21:38:39.924Z,9.82
2023-04-11T21:41:06.902Z,7.82
2023-04-11T21:43:33.469Z,6.63
2023-04-11T21:46:00.180Z,6.72
2023-04-11T21:48:26.775Z,6.40
2023-04-11T21:50:53.720Z,8.93
2023-04-11T21:53:20.295Z,9.30
2023-04-11T21:55:47.199Z,6.43
2023-04-11T21:58:26.213Z,9.88
2023-04-11T22:00:55.724Z,5.07
2023-04-11T22:03:22.910Z,5.22
2023-04-11T22:05:50.588Z,5.70
2023-04-11T22:08:22.354Z,6.55
2023-04-11T22:10:50.624Z,5.63
2023-04-11T22:13:19.568Z,7.30
2023-04-11T22:15:48.756Z,8.30
2023-04-11T22:18:15.445Z,5.82
2023-04-11T22:20:45.869Z,7.70
2023-04-11T22:23:13.676Z,7.13
2023-04-11T22:25:43.824Z,8.15
2023-04-11T22:28:22.107Z,5.35
2023-04-11T22:30:48.873Z,5.93
2023-04-11T22:33:15.760Z,7.43
2023-04-11T22:35:47.513Z,6.13
2023-04-11T22:38:15.803Z,5.95
2023-04-11T22:40:43.039Z,6.65
2023-04-11T22:43:10.599Z,7.13
2023-04-11T22:45:37.333Z,5.97
2023-04-11T22:48:05.876Z,6.05
2023-04-11T22:50:37.094Z,8.00
2023-04-11T22:53:03.966Z,7.13
2023-04-11T22:55:34.974Z,7.80
2023-04-11T22:58:02.755Z,9.10
2023-04-11T23:00:29.867Z,7.85
2023-04-11T23:02:59.446Z,8.15
2023-04-11T23:05:26.219Z,7.38
2023-04-11T23:07:52.886Z,7.22
2023-04-11T23:10:19.554Z,6.68
2023-04-11T23:12:47.333Z,6.30
2023-04-11T23:15:13.966Z,8.27
2023-04-11T23:17:41.250Z,7.25
2023-04-11T23:20:12.297Z,8.18
2023-04-11T23:22:41.206Z,7.03
2023-04-11T23:25:10.858Z,7.68
2023-04-11T23:27:38.096Z,5.47
2023-04-11T23:30:11.465Z,6.22
2023-04-11T23:35:06.748Z,7.75
2023-04-11T23:37:33.720Z,6.03
2023-04-11T23:40:01.672Z,6.93
2023-04-11T23:42:28.284Z,5.25
2023-04-11T23:44:54.947Z,6.93
2023-04-11T23:47:21.658Z,5.80
2023-04-11T23:49:48.232Z,5.03
2023-04-11T23:52:14.817Z,6.20
2023-04-11T23:54:41.616Z,5.18
2023-04-11T23:57:08.263Z,6.45
2023-04-11T23:59:34.865Z,6.63
